Time;durP1;ratioP1;P1;durP2;ratioP2;P2;SDS_P1;SDS_P2;PMS_P1;PMS_P2;Temp;Humidity;BMP_temperature;BMP_pressure;BME280_temperature;BME280_humidity;BME280_pressure;Samples;Min_cycle;Max_cycle;Signal;HPM_P1;HPM_P2
2021/06/03 00:01:42;;;;;;;2.80;1.80;;;23.50;65.70;;;;;;4123073;28;20346;-86
2021/06/03 00:03:43;;;;;;;2.85;2.13;;;23.50;65.40;;;;;;4123110;28;20049;-86
2021/06/03 00:06:08;;;;;;;2.55;1.63;;;23.40;65.50;;;;;;4122921;28;20058;-86
2021/06/03 00:08:09;;;;;;;3.15;2.10;;;23.50;65.70;;;;;;4120761;28;20144;-86
2021/06/03 00:10:11;;;;;;;3.75;2.15;;;23.40;66.10;;;;;;4138285;28;20034;-86
2021/06/03 00:12:11;;;;;;;5.22;2.03;;;23.40;66.60;;;;;;4120765;28;20093;-86
2021/06/03 00:14:12;;;;;;;4.30;2.40;;;23.40;66.40;;;;;;4120522;28;20117;-86
2021/06/03 00:16:16;;;;;;;2.15;1.90;;;23.30;67.10;;;;;;4120490;28;20094;-86
2021/06/03 00:18:17;;;;;;;2.72;1.80;;;23.30;67.50;;;;;;4137481;28;20125;-86
2021/06/03 00:20:22;;;;;;;4.07;1.92;;;23.20;67.90;;;;;;4139422;28;20080;-86
2021/06/03 00:22:22;;;;;;;4.97;2.10;;;23.20;68.50;;;;;;4118590;28;20106;-86
2021/06/03 00:24:23;;;;;;;2.88;1.98;;;23.20;68.90;;;;;;4122223;28;20491;-86
2021/06/03 00:26:24;;;;;;;2.60;1.80;;;23.20;69.00;;;;;;4121231;28;20074;-86
2021/06/03 00:28:25;;;;;;;5.32;2.42;;;23.20;69.40;;;;;;4119916;28;20030;-86
2021/06/03 00:30:26;;;;;;;4.35;2.17;;;23.10;69.70;;;;;;4117124;28;20070;-86
2021/06/03 00:32:29;;;;;;;2.35;2.13;;;23.10;69.90;;;;;;4119941;28;20096;-86
2021/06/03 00:34:29;;;;;;;3.03;2.20;;;23.10;70.90;;;;;;4137367;28;20458;-86
2021/06/03 00:36:30;;;;;;;2.83;1.92;;;23.10;71.40;;;;;;4116837;28;20057;-86
2021/06/03 00:38:31;;;;;;;2.75;2.00;;;23.10;71.80;;;;;;4138814;28;20034;-86
2021/06/03 00:40:32;;;;;;;2.58;1.95;;;23.10;72.80;;;;;;4122602;28;20059;-86
2021/06/03 00:42:33;;;;;;;4.65;2.25;;;23.10;73.10;;;;;;4135439;28;20045;-86
2021/06/03 00:44:34;;;;;;;3.28;2.17;;;23.00;73.30;;;;;;4121145;28;20042;-85
2021/06/03 00:46:34;;;;;;;3.97;2.20;;;23.00;73.80;;;;;;4115650;28;21374;-86
2021/06/03 00:48:36;;;;;;;5.05;1.70;;;23.00;74.60;;;;;;4116928;28;20606;-86
2021/06/03 00:50:45;;;;;;;5.60;2.58;;;23.00;75.10;;;;;;4133744;28;20115;-86
2021/06/03 00:52:45;;;;;;;3.03;1.95;;;23.00;76.40;;;;;;4133330;28;20037;-86
2021/06/03 00:54:46;;;;;;;3.97;2.17;;;23.00;78.10;;;;;;4119622;28;20467;-85
2021/06/03 00:56:47;;;;;;;3.33;2.42;;;23.00;82.00;;;;;;4134731;28;20030;-85
2021/06/03 00:58:48;;;;;;;2.60;2.10;;;23.00;83.80;;;;;;4131254;28;20045;-85
2021/06/03 01:00:50;;;;;;;3.83;2.25;;;23.00;85.10;;;;;;4122541;28;20034;-85
2021/06/03 01:02:51;;;;;;;6.05;2.55;;;23.00;90.30;;;;;;4122539;28;20046;-84
2021/06/03 01:04:51;;;;;;;8.40;3.45;;;23.00;91.90;;;;;;4133507;28;20400;-84
2021/06/03 01:06:52;;;;;;;9.20;2.95;;;23.00;94.90;;;;;;4135663;28;20034;-84
2021/06/03 01:08:57;;;;;;;4.00;2.65;;;23.10;98.00;;;;;;4120377;28;20035;-84
2021/06/03 01:11:02;;;;;;;6.80;3.17;;;23.10;99.90;;;;;;4134220;28;20046;-84
2021/06/03 01:13:15;;;;;;;3.03;2.25;;;23.10;99.90;;;;;;4116039;28;20038;-85
2021/06/03 01:15:17;;;;;;;3.45;2.22;;;23.10;99.90;;;;;;4143100;28;20064;-85
2021/06/03 01:17:20;;;;;;;4.75;2.72;;;23.10;99.90;;;;;;4121839;28;20493;-85
2021/06/03 01:19:26;;;;;;;;;;;23.10;99.90;;;;;;4122025;28;20050;-85
2021/06/03 01:21:34;;;;;;;6.35;2.72;;;23.10;99.90;;;;;;4133965;28;19918;-85
2021/06/03 01:23:48;;;;;;;3.88;2.28;;;23.10;99.90;;;;;;4120593;28;20031;-85
2021/06/03 01:25:49;;;;;;;6.00;3.10;;;23.10;99.90;;;;;;4135204;28;20522;-85
2021/06/03 01:27:51;;;;;;;6.22;3.05;;;23.10;99.90;;;;;;4135814;28;20060;-85
2021/06/03 01:30:16;;;;;;;3.22;2.50;;;23.10;99.90;;;;;;4135789;28;20038;-85
2021/06/03 01:32:18;;;;;;;3.83;2.60;;;23.00;99.90;;;;;;4105754;28;20030;-85
2021/06/03 01:34:23;;;;;;;3.72;3.00;;;23.00;99.90;;;;;;4118275;28;20117;-85
2021/06/03 01:36:24;;;;;;;6.43;2.80;;;23.00;99.90;;;;;;4121704;28;20030;-85
2021/06/03 01:38:29;;;;;;;3.92;2.53;;;22.90;99.90;;;;;;4136740;28;20045;-85
2021/06/03 01:40:32;;;;;;;3.08;2.40;;;22.90;99.90;;;;;;4137931;28;20038;-85
2021/06/03 01:42:33;;;;;;;4.35;2.70;;;22.80;99.90;;;;;;4121919;28;20378;-86
2021/06/03 01:44:34;;;;;;;5.00;2.60;;;22.80;99.90;;;;;;4120470;28;20126;-85
2021/06/03 01:46:35;;;;;;;5.95;2.90;;;22.80;99.90;;;;;;4120739;28;20045;-85
2021/06/03 01:48:37;;;;;;;3.08;2.47;;;22.70;99.90;;;;;;4137789;28;20179;-86
2021/06/03 01:50:40;;;;;;;4.03;2.55;;;22.70;99.90;;;;;;4118510;28;20506;-85
2021/06/03 01:52:41;;;;;;;4.45;2.60;;;22.70;99.90;;;;;;4132205;28;20026;-85
2021/06/03 01:54:43;;;;;;;4.03;2.63;;;22.70;99.90;;;;;;4134307;28;20029;-85
2021/06/03 01:56:46;;;;;;;4.30;2.78;;;22.70;99.90;;;;;;4133238;28;20038;-85
2021/06/03 01:58:48;;;;;;;4.28;2.45;;;22.60;99.90;;;;;;4120705;28;20527;-85
2021/06/03 02:00:49;;;;;;;6.10;2.85;;;22.60;99.90;;;;;;4118636;28;20255;-85
2021/06/03 02:02:50;;;;;;;5.57;3.13;;;22.60;99.90;;;;;;4135449;28;20038;-85
2021/06/03 02:04:50;;;;;;;3.90;2.80;;;22.60;99.90;;;;;;4114795;28;20046;-85
2021/06/03 02:06:52;;;;;;;5.40;3.28;;;22.60;99.90;;;;;;4122093;28;20049;-85
2021/06/03 02:08:53;;;;;;;7.53;2.80;;;22.50;99.90;;;;;;4136508;28;20095;-85
2021/06/03 02:10:54;;;;;;;4.53;2.60;;;22.50;99.90;;;;;;4135986;28;20188;-85
2021/06/03 02:13:13;;;;;;;3.60;2.72;;;22.50;99.90;;;;;;4121017;28;20115;-85
2021/06/03 02:15:16;;;;;;;4.40;2.70;;;22.50;99.90;;;;;;4121838;28;20487;-85
2021/06/03 02:17:18;;;;;;;;;;;22.50;99.90;;;;;;4123699;28;20089;-86
2021/06/03 02:19:25;;;;;;;3.13;2.45;;;22.40;99.90;;;;;;4136507;28;19925;-85
2021/06/03 02:21:27;;;;;;;3.80;2.70;;;22.40;99.90;;;;;;4134421;28;20034;-85
2021/06/03 02:23:30;;;;;;;3.70;2.50;;;22.40;99.90;;;;;;4140908;28;20081;-85
2021/06/03 02:25:31;;;;;;;4.32;2.60;;;22.40;99.90;;;;;;4121930;28;20042;-85
2021/06/03 02:27:32;;;;;;;3.85;2.65;;;22.40;99.90;;;;;;4123738;28;20411;-85
2021/06/03 02:29:34;;;;;;;3.13;2.28;;;22.40;99.90;;;;;;4124253;28;20560;-85
2021/06/03 02:31:36;;;;;;;4.45;2.80;;;22.40;99.90;;;;;;4139316;28;20045;-85
2021/06/03 02:33:37;;;;;;;3.58;2.60;;;22.40;99.90;;;;;;4123102;28;20030;-85
2021/06/03 02:35:38;;;;;;;4.50;2.78;;;22.30;99.90;;;;;;4123260;28;20057;-85
2021/06/03 02:37:40;;;;;;;3.92;2.45;;;22.30;99.90;;;;;;4116429;28;20065;-85
2021/06/03 02:39:41;;;;;;;5.13;3.00;;;22.30;99.90;;;;;;4120603;28;20078;-85
2021/06/03 02:41:43;;;;;;;3.28;2.50;;;22.20;99.90;;;;;;4122748;28;20495;-85
2021/06/03 02:43:46;;;;;;;4.75;2.97;;;22.20;99.90;;;;;;4136904;28;20558;-85
2021/06/03 02:45:46;;;;;;;5.65;3.00;;;22.20;99.90;;;;;;4120211;28;20034;-85
2021/06/03 02:47:47;;;;;;;5.63;2.63;;;22.20;99.90;;;;;;4124104;28;20038;-85
2021/06/03 02:49:48;;;;;;;9.20;3.10;;;22.20;99.90;;;;;;4118346;28;20118;-85
2021/06/03 02:51:48;;;;;;;4.65;3.10;;;22.10;99.90;;;;;;4140459;28;20053;-85
2021/06/03 02:53:49;;;;;;;4.65;2.70;;;22.10;99.90;;;;;;4120389;28;20467;-85
2021/06/03 02:55:50;;;;;;;4.38;2.92;;;22.00;99.90;;;;;;4120233;28;20043;-85
2021/06/03 02:57:51;;;;;;;3.10;2.72;;;22.00;99.90;;;;;;4119402;28;20038;-85
2021/06/03 02:59:52;;;;;;;3.85;2.67;;;21.90;99.90;;;;;;4140184;28;20053;-86
2021/06/03 03:01:53;;;;;;;3.33;2.70;;;21.80;99.90;;;;;;4139526;28;20038;-85
2021/06/03 03:03:53;;;;;;;4.28;3.17;;;21.80;99.90;;;;;;4125046;28;20105;-85
2021/06/03 03:05:54;;;;;;;3.90;2.90;;;21.70;99.90;;;;;;4140909;28;20511;-84
2021/06/03 03:07:55;;;;;;;5.78;3.08;;;21.70;99.90;;;;;;4138262;28;20552;-86
2021/06/03 03:09:56;;;;;;;3.38;2.80;;;21.60;99.90;;;;;;4138918;28;20042;-86
2021/06/03 03:11:56;;;;;;;3.45;2.92;;;21.50;99.90;;;;;;4124163;28;20130;-86
2021/06/03 03:13:58;;;;;;;6.18;3.20;;;21.40;99.90;;;;;;4139973;28;20040;-85
2021/06/03 03:15:59;;;;;;;3.85;3.22;;;21.30;99.90;;;;;;4136530;28;20349;-85
2021/06/03 03:18:00;;;;;;;4.63;3.15;;;21.10;99.90;;;;;;4140281;28;20042;-86
2021/06/03 03:20:00;;;;;;;4.32;3.10;;;21.10;99.90;;;;;;4122250;28;20046;-86
2021/06/03 03:22:02;;;;;;;3.47;2.70;;;21.00;99.90;;;;;;4137568;28;20655;-86
2021/06/03 03:24:03;;;;;;;3.67;2.57;;;21.00;99.90;;;;;;4136269;28;20697;-85
2021/06/03 03:26:04;;;;;;;4.25;3.20;;;21.00;99.90;;;;;;4122081;28;20045;-85
2021/06/03 03:28:06;;;;;;;4.47;2.95;;;20.90;99.90;;;;;;4118876;28;20034;-85
2021/06/03 03:30:09;;;;;;;4.07;3.03;;;20.90;99.90;;;;;;4124327;28;20510;-85
2021/06/03 03:32:09;;;;;;;5.53;3.40;;;20.90;99.90;;;;;;4121395;28;20056;-86
2021/06/03 03:34:10;;;;;;;5.00;3.58;;;20.80;99.90;;;;;;4133557;28;20122;-85
2021/06/03 03:36:11;;;;;;;8.30;3.58;;;20.80;99.90;;;;;;4122388;28;20528;-86
2021/06/03 03:38:12;;;;;;;15.85;3.08;;;20.80;99.90;;;;;;4122596;28;20110;-86
2021/06/03 03:40:16;;;;;;;4.63;2.83;;;20.70;99.90;;;;;;4147085;28;20438;-86
2021/06/03 03:42:17;;;;;;;4.82;3.08;;;20.70;99.90;;;;;;4122578;28;20026;-86
2021/06/03 03:44:18;;;;;;;3.75;3.00;;;20.70;99.90;;;;;;4138533;28;20048;-85
2021/06/03 03:46:18;;;;;;;3.25;2.67;;;20.70;99.90;;;;;;4121232;28;20335;-86
2021/06/03 03:48:19;;;;;;;3.55;2.70;;;20.70;99.90;;;;;;4138512;28;20053;-86
2021/06/03 03:50:20;;;;;;;5.68;3.25;;;20.70;99.90;;;;;;4118213;28;20042;-86
2021/06/03 03:52:21;;;;;;;4.30;3.00;;;20.70;99.90;;;;;;4123055;28;20030;-85
2021/06/03 03:54:22;;;;;;;3.95;2.65;;;20.60;99.90;;;;;;4120951;28;20069;-86
2021/06/03 03:56:22;;;;;;;4.78;2.97;;;20.60;99.90;;;;;;4123011;28;20037;-86
2021/06/03 03:58:23;;;;;;;4.00;3.10;;;20.60;99.90;;;;;;4135171;28;20061;-86
2021/06/03 04:00:27;;;;;;;5.30;2.90;;;20.60;99.90;;;;;;4139294;28;20030;-86
2021/06/03 04:02:27;;;;;;;4.50;2.70;;;20.60;99.90;;;;;;4122532;28;20031;-86
2021/06/03 04:04:28;;;;;;;7.32;2.65;;;20.70;99.90;;;;;;4120840;28;20624;-86
2021/06/03 04:06:29;;;;;;;2.88;2.58;;;20.70;99.90;;;;;;4133362;28;20096;-86
2021/06/03 04:08:29;;;;;;;3.67;3.00;;;20.70;99.90;;;;;;4121060;28;20078;-86
2021/06/03 04:10:30;;;;;;;4.15;2.83;;;20.80;99.90;;;;;;4138418;28;20116;-86
2021/06/03 04:12:31;;;;;;;4.10;3.10;;;20.80;99.90;;;;;;4115723;28;20133;-86
2021/06/03 04:14:31;;;;;;;7.10;2.53;;;20.80;99.90;;;;;;4123072;28;20045;-86
2021/06/03 04:16:32;;;;;;;3.63;2.88;;;20.90;99.90;;;;;;4119002;28;20535;-86
2021/06/03 04:18:33;;;;;;;3.13;2.53;;;20.90;99.90;;;;;;4134391;28;20038;-86
2021/06/03 04:20:34;;;;;;;4.57;3.03;;;20.90;99.90;;;;;;4118742;28;20398;-85
2021/06/03 04:22:35;;;;;;;3.25;2.60;;;21.00;99.90;;;;;;4122516;28;20049;-86
2021/06/03 04:24:36;;;;;;;4.13;2.80;;;21.00;99.90;;;;;;4130121;28;20042;-86
2021/06/03 04:26:37;;;;;;;4.53;2.92;;;21.00;99.90;;;;;;4123458;28;20038;-86
2021/06/03 04:28:37;;;;;;;3.97;2.83;;;21.00;99.90;;;;;;4117757;28;20122;-85
2021/06/03 04:30:40;;;;;;;7.45;3.60;;;21.00;99.90;;;;;;4136322;28;20170;-86
2021/06/03 04:32:41;;;;;;;5.82;3.25;;;21.00;99.90;;;;;;4121425;28;20442;-86
2021/06/03 04:34:41;;;;;;;6.90;3.40;;;21.00;99.90;;;;;;4137730;28;20041;-86
2021/06/03 04:36:42;;;;;;;6.47;3.35;;;21.00;99.90;;;;;;4120058;28;20034;-86
2021/06/03 04:38:43;;;;;;;6.05;3.55;;;21.00;99.90;;;;;;4136761;28;20033;-85
2021/06/03 04:40:43;;;;;;;4.90;3.22;;;21.10;99.90;;;;;;4122613;28;20034;-86
2021/06/03 04:42:45;;;;;;;5.35;2.90;;;21.10;99.90;;;;;;4123001;28;20034;-85
2021/06/03 04:44:46;;;;;;;6.60;2.67;;;21.10;99.90;;;;;;4137585;28;20038;-86
2021/06/03 04:46:48;;;;;;;6.45;2.80;;;21.00;99.90;;;;;;4135638;28;20408;-86
2021/06/03 04:48:49;;;;;;;6.22;3.00;;;21.00;99.90;;;;;;4120927;28;20078;-86
2021/06/03 04:50:49;;;;;;;3.78;2.60;;;21.10;99.90;;;;;;4125074;28;20506;-86
2021/06/03 04:52:50;;;;;;;4.10;2.67;;;21.10;99.90;;;;;;4122187;28;20459;-85
2021/06/03 04:54:52;;;;;;;5.68;2.22;;;21.10;99.90;;;;;;4136599;28;20057;-86
2021/06/03 04:56:53;;;;;;;4.60;2.47;;;21.10;99.90;;;;;;4141013;28;20053;-86
2021/06/03 04:58:54;;;;;;;5.03;2.95;;;21.10;99.90;;;;;;4122352;28;20037;-86
2021/06/03 05:00:55;;;;;;;4.25;2.78;;;21.10;99.90;;;;;;4139551;28;20022;-85
2021/06/03 05:02:56;;;;;;;4.00;2.85;;;21.10;99.90;;;;;;4123716;28;20113;-86
2021/06/03 05:04:57;;;;;;;3.67;2.58;;;21.00;99.90;;;;;;4139213;28;20060;-85
2021/06/03 05:06:57;;;;;;;3.33;2.40;;;21.00;99.90;;;;;;4134488;28;20565;-86
2021/06/03 05:08:58;;;;;;;5.28;2.78;;;21.00;99.90;;;;;;4135640;28;20033;-86
2021/06/03 05:10:58;;;;;;;6.15;3.10;;;21.00;99.90;;;;;;4119572;28;20038;-86
2021/06/03 05:13:01;;;;;;;4.82;2.83;;;21.00;99.90;;;;;;4123168;28;20034;-86
2021/06/03 05:15:04;;;;;;;4.40;2.38;;;21.00;99.90;;;;;;4139692;28;20042;-86
2021/06/03 05:17:05;;;;;;;4.55;2.60;;;21.00;99.90;;;;;;4120711;28;20141;-86
2021/06/03 05:19:06;;;;;;;5.18;2.70;;;21.00;99.90;;;;;;4118973;28;20045;-86
2021/06/03 05:21:06;;;;;;;5.75;2.72;;;21.00;99.90;;;;;;4138764;28;20038;-86
2021/06/03 05:23:07;;;;;;;3.90;2.55;;;21.00;99.90;;;;;;4127016;28;20124;-82
2021/06/03 05:25:11;;;;;;;4.88;2.70;;;21.00;99.90;;;;;;4124183;28;20070;-79
2021/06/03 05:27:11;;;;;;;4.72;2.90;;;21.10;99.90;;;;;;4155794;28;20112;-79
2021/06/03 05:29:16;;;;;;;4.72;2.70;;;21.00;99.90;;;;;;4139620;28;20111;-80
2021/06/03 05:31:16;;;;;;;7.60;2.67;;;21.00;99.90;;;;;;4138875;28;20066;-79
2021/06/03 05:33:17;;;;;;;4.90;2.47;;;21.00;99.90;;;;;;4122657;28;20042;-79
2021/06/03 05:35:19;;;;;;;4.25;2.83;;;21.10;99.90;;;;;;4123905;28;20034;-79
2021/06/03 05:37:20;;;;;;;6.45;2.67;;;21.10;99.90;;;;;;4136217;28;20084;-80
2021/06/03 05:39:21;;;;;;;2.75;2.25;;;21.10;99.90;;;;;;4139729;28;20510;-79
2021/06/03 05:41:22;;;;;;;3.70;2.50;;;21.10;99.90;;;;;;4139865;28;20069;-79
2021/06/03 05:43:23;;;;;;;4.35;2.53;;;21.20;99.90;;;;;;4141454;28;20490;-79
2021/06/03 05:45:24;;;;;;;6.57;2.60;;;21.20;99.90;;;;;;4145314;28;20471;-80
2021/06/03 05:47:25;;;;;;;5.55;3.38;;;21.20;99.90;;;;;;4123754;28;20034;-79
2021/06/03 05:49:27;;;;;;;3.88;2.20;;;21.30;99.90;;;;;;4142685;28;20435;-79
2021/06/03 05:51:29;;;;;;;4.03;2.40;;;21.40;99.90;;;;;;4141567;28;20100;-80
2021/06/03 05:53:30;;;;;;;4.70;2.60;;;21.50;99.90;;;;;;4127838;28;20044;-80
2021/06/03 05:55:30;;;;;;;5.65;2.50;;;21.60;99.90;;;;;;4141297;28;20034;-80
2021/06/03 05:57:31;;;;;;;3.65;2.53;;;21.60;99.90;;;;;;4124578;28;20438;-79
2021/06/03 05:59:32;;;;;;;5.38;2.60;;;21.60;99.90;;;;;;4145680;28;20034;-79
2021/06/03 06:01:33;;;;;;;5.57;2.90;;;21.60;99.90;;;;;;4144183;28;20585;-79
2021/06/03 06:03:41;;;;;;;3.95;3.03;;;21.60;99.90;;;;;;4144285;28;20053;-79
2021/06/03 06:07:57;;;;;;;4.85;2.55;;;21.80;99.90;;;;;;4147013;28;20084;-79
2021/06/03 06:09:58;;;;;;;3.45;2.50;;;21.90;99.90;;;;;;4126840;28;20034;-80
2021/06/03 06:11:59;;;;;;;3.65;2.63;;;22.10;99.90;;;;;;4140596;28;20042;-80
2021/06/03 06:14:01;;;;;;;6.70;3.08;;;22.40;99.90;;;;;;4141053;28;20467;-79
2021/06/03 06:16:03;;;;;;;6.20;2.80;;;22.70;99.90;;;;;;4126136;28;20050;-79
2021/06/03 06:18:05;;;;;;;3.35;2.30;;;22.80;99.90;;;;;;4145945;28;20057;-79
2021/06/03 06:20:06;;;;;;;4.38;2.72;;;23.00;99.90;;;;;;4141536;28;20033;-80
2021/06/03 06:22:06;;;;;;;2.97;2.20;;;23.20;99.90;;;;;;4142095;28;20040;-80
2021/06/03 06:24:08;;;;;;;5.43;2.67;;;23.30;99.90;;;;;;4143518;28;20038;-79
2021/06/03 06:26:09;;;;;;;3.25;2.15;;;23.40;99.90;;;;;;4126817;28;20046;-79
2021/06/03 06:28:11;;;;;;;3.93;2.50;;;23.50;99.90;;;;;;4147197;28;20315;-79
2021/06/03 06:30:14;;;;;;;3.10;2.22;;;23.50;99.90;;;;;;4131891;28;20073;-79
2021/06/03 06:32:14;;;;;;;5.78;2.65;;;23.60;99.90;;;;;;4127410;28;20525;-79
2021/06/03 06:34:15;;;;;;;3.20;2.50;;;23.70;99.90;;;;;;4145146;28;20038;-79
2021/06/03 06:36:17;;;;;;;3.30;2.38;;;23.70;99.90;;;;;;4143905;28;20147;-80
2021/06/03 06:38:20;;;;;;;4.10;2.30;;;23.60;99.90;;;;;;4142741;28;20548;-80
2021/06/03 06:40:21;;;;;;;4.22;2.45;;;23.60;99.90;;;;;;4143684;28;20540;-80
2021/06/03 06:42:23;;;;;;;5.00;2.40;;;23.50;99.90;;;;;;4140188;28;20121;-80
2021/06/03 06:44:24;;;;;;;3.38;2.33;;;23.40;99.90;;;;;;4127069;28;20125;-80
2021/06/03 06:46:24;;;;;;;6.22;2.40;;;23.40;99.90;;;;;;4142078;28;20049;-80
2021/06/03 06:48:25;;;;;;;3.47;2.25;;;23.30;99.90;;;;;;4144485;28;20057;-80
2021/06/03 06:50:26;;;;;;;4.47;2.80;;;23.30;99.90;;;;;;4131429;28;20041;-79
2021/06/03 06:52:27;;;;;;;4.00;2.60;;;23.30;99.90;;;;;;4145204;28;20037;-80
2021/06/03 06:54:27;;;;;;;5.28;2.75;;;23.30;99.90;;;;;;4122880;28;20030;-79
2021/06/03 06:56:28;;;;;;;5.13;2.75;;;23.30;99.90;;;;;;4125284;28;20034;-79
2021/06/03 06:58:29;;;;;;;2.60;2.20;;;23.30;99.90;;;;;;4140187;28;20045;-79
2021/06/03 07:00:35;;;;;;;3.17;2.50;;;23.20;99.90;;;;;;4139926;28;20418;-79
2021/06/03 07:02:37;;;;;;;3.67;2.80;;;23.10;99.90;;;;;;4137741;28;20037;-79
2021/06/03 07:04:38;;;;;;;5.63;2.35;;;23.10;99.90;;;;;;4124729;28;20034;-79
2021/06/03 07:06:39;;;;;;;5.00;2.28;;;23.00;99.90;;;;;;4124644;28;20434;-79
2021/06/03 07:08:40;;;;;;;4.50;3.03;;;23.00;99.90;;;;;;4147337;28;20402;-79
2021/06/03 07:10:42;;;;;;;3.05;2.50;;;22.90;99.90;;;;;;4126655;28;20039;-79
2021/06/03 07:12:43;;;;;;;4.88;2.90;;;23.00;99.90;;;;;;4147153;28;20109;-79
2021/06/03 07:14:44;;;;;;;4.65;2.97;;;23.00;99.90;;;;;;4143218;28;20060;-80
2021/06/03 07:16:44;;;;;;;3.50;2.40;;;23.00;99.90;;;;;;4124979;28;20026;-80
2021/06/03 07:18:45;;;;;;;4.45;2.55;;;22.90;99.90;;;;;;4125489;28;20049;-80
2021/06/03 07:20:46;;;;;;;5.03;2.88;;;22.90;99.90;;;;;;4146612;28;20026;-80
2021/06/03 07:22:49;;;;;;;3.78;2.40;;;22.80;99.90;;;;;;4129107;28;20034;-79
2021/06/03 07:24:50;;;;;;;4.35;2.60;;;22.90;99.90;;;;;;4128421;28;20471;-80
2021/06/03 07:26:51;;;;;;;3.65;2.83;;;22.80;99.90;;;;;;4140860;28;20077;-80
2021/06/03 07:28:52;;;;;;;6.80;3.10;;;22.80;99.90;;;;;;4142662;28;20423;-80
2021/06/03 07:30:53;;;;;;;7.38;3.95;;;22.80;99.90;;;;;;4142720;28;20510;-79
2021/06/03 07:32:54;;;;;;;3.92;3.08;;;22.80;99.90;;;;;;4125819;28;20062;-79
2021/06/03 07:34:56;;;;;;;4.88;2.97;;;23.00;99.90;;;;;;4142890;28;20032;-79
2021/06/03 07:36:56;;;;;;;5.75;3.13;;;23.00;99.90;;;;;;4140414;28;20049;-80
2021/06/03 07:38:57;;;;;;;5.10;3.30;;;23.00;99.90;;;;;;4128912;28;20107;-79
2021/06/03 07:40:58;;;;;;;5.47;3.00;;;23.00;99.90;;;;;;4145834;28;20061;-79
2021/06/03 07:43:01;;;;;;;6.55;3.13;;;23.10;99.90;;;;;;4143351;28;20033;-79
2021/06/03 07:45:04;;;;;;;3.88;2.50;;;23.10;99.90;;;;;;4145630;28;20125;-80
2021/06/03 07:47:04;;;;;;;4.90;3.00;;;23.10;99.90;;;;;;4123613;28;20038;-79
2021/06/03 07:49:07;;;;;;;6.22;3.30;;;23.00;99.90;;;;;;4143575;28;20041;-79
2021/06/03 07:51:09;;;;;;;6.07;3.42;;;23.00;99.90;;;;;;4128841;28;20040;-80
2021/06/03 07:53:10;;;;;;;6.07;2.75;;;23.00;99.90;;;;;;4147157;28;20197;-79
2021/06/03 07:55:13;;;;;;;5.23;3.27;;;23.00;99.90;;;;;;4144382;28;20038;-79
2021/06/03 07:57:14;;;;;;;7.07;3.28;;;23.10;99.90;;;;;;4123538;28;20038;-79
2021/06/03 07:59:14;;;;;;;6.30;3.17;;;23.10;99.90;;;;;;4144412;28;20121;-79
2021/06/03 08:01:15;;;;;;;6.90;3.20;;;23.10;99.90;;;;;;4123465;28;20328;-79
2021/06/03 08:03:16;;;;;;;4.95;3.10;;;23.10;99.90;;;;;;4126001;28;20034;-80
2021/06/03 08:05:19;;;;;;;4.40;3.05;;;23.10;99.90;;;;;;4141211;28;20333;-80
2021/06/03 08:07:20;;;;;;;6.00;3.45;;;23.00;99.90;;;;;;4127067;28;20038;-80
2021/06/03 08:09:20;;;;;;;5.13;3.40;;;23.00;99.90;;;;;;4145050;28;20597;-80
2021/06/03 08:11:21;;;;;;;4.93;3.05;;;23.00;99.90;;;;;;4142924;28;20044;-79
2021/06/03 08:13:22;;;;;;;3.15;2.85;;;23.00;99.90;;;;;;4127463;28;20081;-79
2021/06/03 08:15:24;;;;;;;7.95;3.88;;;23.00;99.90;;;;;;4123593;28;20066;-79
2021/06/03 08:17:25;;;;;;;;;;;23.00;99.90;;;;;;4126396;28;20034;-79
2021/06/03 08:19:25;;;;;;;4.95;3.50;;;23.00;99.90;;;;;;4142033;28;19944;-79
2021/06/03 08:21:26;;;;;;;4.78;2.88;;;23.00;99.90;;;;;;4137721;28;20037;-80
2021/06/03 08:23:28;;;;;;;5.00;3.30;;;23.10;99.90;;;;;;4144404;28;20042;-80
2021/06/03 08:25:29;;;;;;;7.15;3.33;;;23.10;99.90;;;;;;4140899;28;20034;-79
2021/06/03 08:27:30;;;;;;;6.57;2.67;;;23.10;99.90;;;;;;4140824;28;20108;-79
2021/06/03 08:29:31;;;;;;;9.20;3.95;;;23.10;99.90;;;;;;4143620;28;20042;-79
2021/06/03 08:31:31;;;;;;;6.50;3.70;;;23.10;99.90;;;;;;4141647;28;20117;-80
2021/06/03 08:33:32;;;;;;;4.95;3.17;;;23.10;99.90;;;;;;4130779;28;20153;-80
2021/06/03 08:35:33;;;;;;;4.95;2.97;;;23.10;99.90;;;;;;4141440;28;20120;-80
2021/06/03 08:37:34;;;;;;;3.75;3.08;;;23.20;99.90;;;;;;4143197;28;20030;-80
2021/06/03 08:39:34;;;;;;;5.95;3.50;;;23.20;99.90;;;;;;4143922;28;20046;-80
2021/06/03 08:41:45;;;;;;;5.30;2.72;;;23.20;99.90;;;;;;4143268;28;20025;-80
2021/06/03 08:43:46;;;;;;;7.55;3.70;;;23.30;99.90;;;;;;4140800;28;20912;-81
2021/06/03 08:45:47;;;;;;;7.78;2.92;;;23.40;99.90;;;;;;4124336;28;20038;-80
2021/06/03 08:47:47;;;;;;;4.55;3.08;;;23.40;99.90;;;;;;4144771;28;20037;-80
2021/06/03 08:49:48;;;;;;;5.30;3.63;;;23.40;99.90;;;;;;4142386;28;20038;-80
2021/06/03 08:51:53;;;;;;;10.32;3.50;;;23.50;99.90;;;;;;4127286;28;20046;-80
2021/06/03 08:53:54;;;;;;;5.28;3.80;;;23.50;99.90;;;;;;4141527;28;21161;-80
2021/06/03 08:58:20;;;;;;;5.75;3.72;;;23.60;99.90;;;;;;4144589;28;20053;-80
2021/06/03 09:00:21;;;;;;;6.72;3.63;;;23.70;99.90;;;;;;4140606;28;20518;-80
2021/06/03 09:02:21;;;;;;;4.70;3.10;;;23.80;99.90;;;;;;4142944;28;20037;-79
2021/06/03 09:04:22;;;;;;;5.22;3.60;;;23.90;99.90;;;;;;4143110;28;20463;-80
2021/06/03 09:06:23;;;;;;;5.13;2.85;;;24.00;99.90;;;;;;4140085;28;20037;-80
2021/06/03 09:08:24;;;;;;;7.13;3.60;;;24.10;99.90;;;;;;4141968;28;20026;-80
2021/06/03 09:10:26;;;;;;;5.35;3.60;;;24.20;99.90;;;;;;4142884;28;20056;-79
2021/06/03 09:12:27;;;;;;;8.90;4.10;;;24.20;99.90;;;;;;4141327;28;20513;-80
2021/06/03 09:14:29;;;;;;;5.63;3.50;;;24.20;99.90;;;;;;4142243;28;20064;-80
2021/06/03 09:16:33;;;;;;;8.15;3.95;;;24.30;99.90;;;;;;4143116;28;20041;-80
2021/06/03 09:18:40;;;;;;;4.75;3.13;;;24.30;99.90;;;;;;4127520;28;20038;-80
2021/06/03 09:20:45;;;;;;;4.85;3.22;;;24.30;99.90;;;;;;4141592;28;20026;-80
2021/06/03 09:22:45;;;;;;;4.93;3.58;;;24.50;99.90;;;;;;4144282;28;20117;-79
2021/06/03 09:24:46;;;;;;;6.70;3.85;;;24.50;99.90;;;;;;4146669;28;20026;-80
2021/06/03 09:26:52;;;;;;;7.10;3.25;;;24.70;99.90;;;;;;4127347;28;20435;-80
2021/06/03 09:28:54;;;;;;;7.10;4.40;;;24.70;99.90;;;;;;4127814;28;20038;-80
2021/06/03 09:31:04;;;;;;;6.60;3.90;;;24.80;99.90;;;;;;4148559;28;20089;-79
2021/06/03 09:33:05;;;;;;;7.28;3.65;;;24.70;99.90;;;;;;4123583;28;20765;-80
2021/06/03 09:35:06;;;;;;;5.63;3.35;;;24.70;99.90;;;;;;4130984;28;20046;-80
2021/06/03 09:37:12;;;;;;;6.30;3.30;;;24.70;99.90;;;;;;4126986;28;20092;-79
2021/06/03 09:39:17;;;;;;;4.75;3.00;;;24.70;99.90;;;;;;4141079;28;20434;-81
2021/06/03 09:41:18;;;;;;;6.28;3.42;;;24.70;99.90;;;;;;4129851;28;20070;-80
2021/06/03 09:43:21;;;;;;;4.88;3.30;;;24.60;99.90;;;;;;4143524;28;20454;-80
2021/06/03 09:45:23;;;;;;;;;;;24.60;99.90;;;;;;4145049;28;20069;-80
2021/06/03 09:47:33;;;;;;;3.88;3.17;;;24.60;99.90;;;;;;4150491;28;19939;-80
2021/06/03 09:49:35;;;;;;;5.13;3.60;;;24.50;99.90;;;;;;4146147;28;20049;-80
2021/06/03 09:51:38;;;;;;;5.68;3.55;;;24.50;99.90;;;;;;4150502;28;20029;-80
2021/06/03 09:54:01;;;;;;;5.47;2.70;;;24.50;99.90;;;;;;4143865;28;20038;-80
2021/06/03 09:56:26;;;;;;;7.22;2.80;;;24.50;99.90;;;;;;4123964;28;20038;-79
2021/06/03 09:58:39;;;;;;;4.05;2.20;;;24.50;99.90;;;;;;4142244;28;20225;-80
2021/06/03 10:00:46;;;;;;;3.97;2.40;;;24.30;99.90;;;;;;4142733;28;20032;-79
2021/06/03 10:02:52;;;;;;;3.03;1.70;;;24.30;99.90;;;;;;4129065;28;20106;-80
2021/06/03 10:04:54;;;;;;;3.17;2.03;;;24.30;99.90;;;;;;4143308;28;20088;-80
2021/06/03 10:07:06;;;;;;;4.32;1.88;;;24.30;99.90;;;;;;4135098;28;20034;-79
2021/06/03 10:09:09;;;;;;;3.28;1.92;;;24.40;99.90;;;;;;4144666;28;20057;-79
2021/06/03 10:11:10;;;;;;;;;;;24.40;99.90;;;;;;4145598;28;20041;-79
2021/06/03 10:13:11;;;;;;;2.63;1.55;;;24.40;99.90;;;;;;4145480;28;19951;-79
2021/06/03 10:15:25;;;;;;;2.78;1.80;;;24.30;99.90;;;;;;4148213;28;20026;-80
2021/06/03 10:17:56;;;;;;;2.85;1.92;;;24.30;99.90;;;;;;4143364;28;20360;-80
2021/06/03 10:20:05;;;;;;;2.53;2.00;;;24.40;99.90;;;;;;4141349;28;20030;-79
2021/06/03 10:22:30;;;;;;;6.03;1.85;;;24.30;99.90;;;;;;4146188;28;20113;-80
2021/06/03 10:24:53;;;;;;;3.45;2.10;;;24.30;99.90;;;;;;4139597;28;20081;-80
2021/06/03 10:26:54;;;;;;;;;;;24.40;99.90;;;;;;4138235;28;20489;-80
2021/06/03 10:28:55;;;;;;;4.47;1.70;;;24.30;99.90;;;;;;4143041;28;19948;-80
2021/06/03 10:31:01;;;;;;;3.03;1.75;;;24.30;99.90;;;;;;4144644;28;20506;-80
2021/06/03 10:33:07;;;;;;;2.92;1.60;;;24.40;99.90;;;;;;4142079;28;20034;-80
2021/06/03 10:35:13;;;;;;;2.53;1.70;;;24.40;99.90;;;;;;4140104;28;20037;-80
2021/06/03 10:37:15;;;;;;;2.13;1.20;;;24.30;99.90;;;;;;4141684;28;20105;-79
2021/06/03 10:39:21;;;;;;;2.58;1.45;;;24.40;99.90;;;;;;4144171;28;20049;-80
2021/06/03 10:41:22;;;;;;;1.83;1.50;;;24.40;99.90;;;;;;4149478;28;20331;-80
2021/06/03 10:43:23;;;;;;;2.47;1.42;;;24.50;99.90;;;;;;4151920;28;20079;-79